SMRA90 UAOL 210900
AAXX 21091
91612 41498 71505 10270 20253 40096 51021 78022 85802 333 563/9 83818 84819 85080=
91669 14/// /1509 10273 20239 30104 40117 50011=
91682 14/// /3201 10245 20235 30110 40121 55015=
91825 16/// /1404 10247 20228 30065 40139 52013 60007=
91929 24985 72405 10262 20242 30108 40111 58003 700// 333 4//// 69907 90710 91111 555 60005=
93339 46/// /0403 10118 20103 39328 52012=
93985 46598 /1111 10144 20099 30295 40311 52012=
94100 46/// /2907 10328 20220 30033 40060=
94106 46/// /0805 10333 20218 30013 40031=
94108 46/// /2813 10303 20273 30037 40049=
94109 46/// /2705 10306 20240 30033 40045=
94110 46/// /3107 10306 20278 30029 40039=
94293 46/// /1513 10267 30099 40110=
94341 46/// /0405 10309 20172 39835 40066=
94344 46/// /1310 10379 20111 39845 40046=
94348 46/// /0705 10345 20144=
94349 46/// /0708 10336 20146=
94395 46/// /0504 10296 20174 39802 40107=
94417 46/// /2209 10310 20177 39772 40078=
94429 46/// /0708 10263 20179 39633 40087=
94450 46/// /1801 10251 20149 39688 40105=
94628 46/// /1213 10254 20133 39733 40100=
94641 46/// /1311 10234 20162 39745 40113=
94644 46/// /0819 10217 20189 30126 40130=
94782 46/// /1302 10225 20197=
94875 46/// /1907 10283 20118 39987 40120=
94943 46/// /0906 10182 20160 39458 40172=
94988 46/// /1903 10146 20133 30214 40223=
95111 46/// /3007 10309 20233 30015 40048=
95214 46/// /3509 10374 20211 30025 40030=
95283 46/// /1307 10248 20241 30072 40078=
95305 46/// /3012 10338 20235 30024 40036=
95317 46/// /1105 10330 20184 39843 40045=
95322 46/// /1410 10401 21022 39661 40034=
95402 46/// /2119 10268 20181 30039 40078=
95480 46/// /2011 10347 20023 30038 40096=
95482 46/// /1909 10344 20109 30019 40072=
95485 46/// /0903 10342 21032 39896 40097=
95492 46/// /1504 10357 20019 39936 40084=
95612 46/// /2307 10290 20190 30004 40090=
95625 46/// /2705 10338 20127 39828 40075=
95632 46/// /1707 10234 20164 39912 40120=
95634 46/// /2315 10236 20166 39700 40094=
95635 46/// /1102 10213 20203 30077 40109=
95637 46/// /1211 10276 20146 39769 40097=
95639 46/// /1814 10230 20183=
95642 46/// /0609 10201 20201 39809 40110=
95644 46/// /1118 10204 2//// 39854 40108=
95647 46/// /1507 10191 20191 30049 40135=
95826 46/// /1514 10172 30171 40173=
95832 46/// /1611 10190 20147=
95839 46/// /1815 10241 20148 39982 40139=
95966 46/// /0405 10191 20156 39993 40192=
98132 32465 11801 10278 20252 40139 56009 81100 333 56499 81817=
98134 32475 10000 10260 20247 39924 40112 56009 81100 333 56999 81821=
98222 31465 53202 10290 20229 40108 55006 70544 81265 333 56999 81819 83279=
98223 31460 73403 10286 20234 40111 56006 70544 83260 333 56699 83818 85357=
98232 31570 23602 10284 20233 30100 40103 54000 70544 82200 222// 20100 333 56999 82820=
98233 31565 11802 10340 20180 40105 55008 70544 81200 333 56999 81820=
98324 31470 62902 10302 20238 30103 40109 55010 70544 81201 333 56999 81816 86080=
98325 31462 43605 10320 20240 40100 56007 70544 82101 222// 20000 333 56999 82817 83079 98308=
98327 31470 41407 10328 20190 39928 40101 53010 70544 82106 333 56999 81820 84080=
98328 31460 43202 10224 20196 38508 40077 56009 74044 84201 333 56999 84813=
98334 32480 31401 10280 20247 39910 40112 55011 82201 333 56999 82818=
98336 31470 31801 10302 20247 30114 40122 56011 70544 82201 333 56999 82818=
98425 31562 31404 10323 20167 30079 40096 56006 70544 82101 333 56999 82820 83080=
98426 31570 30804 10326 20171 30078 40100 55007 70544 81134 333 56999 81820 90428 91109 91509=
98427 32575 50602 10272 20243 39925 40103 55006 82208 333 56999 82820 85275=
98428 32468 30904 10319 20209 30081 40084 56014 82430 333 56999 82618=
98429 31560 11205 10318 20183 40094 56011 70544 81100 333 56999 81825=
98430 31558 41702 10330 20172 30046 40095 55008 70544 83201 333 56899 83820 90728 91109 91515=
98431 31472 21202 10304 20227 30052 40099 56016 70544 82200 333 56999 82818=
98432 31568 20701 10324 20223 30081 40093 55009 70544 81270 333 56999 81820=
98433 31464 40804 10248 20188 39381 40094 56013 70544 81220 333 56999 81812 83357=
98434 32475 23204 10284 20260 30103 40111 56012 81201 333 56999 81818=
98435 32475 10503 10287 20233 30085 40091 56005 81101 333 56999 81818=
98440 32466 20602 10292 20256 30103 40108 55010 81131 333 56299 81815=
98444 32468 40903 10290 20245 30088 40106 55003 82205 333 56999 82818 84070=
98446 32468 20904 10288 20243 30072 40118 56015 81101 333 56999 81818=
98531 31570 10704 10328 20197 30078 40082 56008 70544 81100 333 56199 81820=
98536 31470 20401 10290 20234 39901 40099 56010 70544 81101 333 56999 81818=
98538 31468 20903 10310 20244 30100 40105 55012 70544 82200 333 56999 82811=
98543 32470 31102 10294 20229 30096 40107 55007 81101 333 56999 81818 83075=
98546 32575 20705 10282 20237 30100 40108 55005 81201 333 56999 81820=
98548 32475 40402 10304 20196 30087 40093 56006 82238 333 56299 82816 84272=
98553 31470 60702 10277 20248 30100 40104 56004 70544 83830 333 56999 83618 85361=
98558 31470 40605 10270 20249 40127 55004 70544 83101 222// 20502 333 56199 83818=
98618 32475 20904 10304 20228 40096 55013 82201 333 56299 82819=
98630 32568 10202 10310 20258 30130 40135 56008 81101 222// 333 56999 81820=
98642 32462 20403 10294 20229 30076 40085 56009 81202 333 56199 81815=
98644 31465 10201 10290 20251 30066 40095 56006 70544 81201 333 56199 81817=
98646 32560 10503 10300 20211 30067 40095 55010 81200 333 56999 81820=
98648 31472 10905 10310 20250 30009 40091 55003 70544 81201 333 56999 81817=
98653 31479 20304 10284 20236 30071 40116 5/004 70544 81201 333 56999 81818=
98741 31468 20402 10304 20228 40090 55005 70544 81101 333 56999 81818=
98746 31462 43203 10317 20240 40070 57003 70544 82206 333 56999 82818 83075=
98751 31470 21301 10305 20221 39415 40085 56003 70544 81170 333 56999 81815=
98752 32463 20103 10308 20252 40104 55001 82270 333 56999 82818=
98753 31465 52203 10323 20222 30068 40089 55001 70544 84231 333 56999 84816 83359=
98755 32565 20404 10282 20225 30100 40104 55000 82202 333 56999 82820=
98836 31461 11801 10314 20232 30078 40086 55000 70544 81201 333 56999 81817=
98851 32470 10404 10325 20162 39939 40087 56001 81100 333 56999 81818=



SMUS90 KWBC 210900
AAXX 21094
91490 41599 29901 10273 20256 40097 51014 70200 82100 333 569// 82820=
91502 31470 80000 10274 20260 40081 53016 71522 82907 333 56909 82814 81915 87280=
91503 31470 70000 10262 20254 40087 51017 71322 8397/ 333 56999 83816 81917 86460=
91517 21475 71804 10265 20258 40091 52024 71582 81836 333 56000 60027 81817 87280=
91520 31480 71803 10262 20246 40089 52025 70522 82837 333 56999 81816 87280=
91541 32480 30000 10/// 20/// 40124 51013 82206 333 56909 82817 83280=
91551 41598 20000 10265 20258 40102 52019 70122 82101 333 563/9 82820=
91554 41598 43304 10248 20235 40106 52019 71328 84930 333 5669/ 83825 81928=
91557 41598 50703 10255 20241 40118 52022 70222 82101 333 562/9 82820 85080=
91568 41598 50000 10254 20228 40131 52020 70222 85200 333 569// 85825=
91579 24570 /1111 10272 20226 30119 40129 53019 700// 333 4//// 60007 90710 91120 555 60005=
91587 24570 61106 10252 20211 30085 40140 53017 700// 333 4//// 60007 90710 91112 555 60005=
91590 24786 71106 10240 20223 30121 40134 53018 700// 333 4//// 69927 90710 91110 555 60005=
91596 24570 /1009 10247 20212 30028 40147 51020 700// 333 4//// 60007 90710 91114 555 60005=
91643 41599 51010 10296 20257 40100 51022 70122 82102 333 563/9 82820 84080=
91650 41598 71408 10270 20240 40075 53009 70222 878// 333 569// 85828 85648=
91652 14/// /0807 10261 20258 30056 40129 50013=
91660 14/// /1105 10267 20250 30063 40125 53015=
91670 14/// /1202 10263 20237 30109 40115 50021=
91676 14/// /0907 10279 20248 30113 40173 50019=
91680 41599 61803 10276 20248 40124 52017 70222 85872 333 56999 84828 84648=
91683 41599 50000 10262 20252 40134 52014 70225 85800 333 569// 83820 83645=
91691 14/// /0904 10276 20246 30131 40134 50017=
91697 14/// /1105 10271 20237 30129 40134 50015=
91753 24981 81205 10276 20250 30087 40119 51017 700// 333 4//// 69947 90710 91114 555 69905=
91843 41598 31902 10255 20239 40118 51003 70110 83800 333 564// 83820=
91925 26/// /0000 10256 20219 30058 40118 58001 333 60007 90710 91104 555 60005 13107 58006=
91938 24484 83512 10268 20239 30110 40112 50000 700// 333 60007 90710 91120 555 60005 13520 59004=
91944 24963 80710 10275 20247 30129 40142 58002 700// 333 4//// 60007 90710 91113 555 60005=
91948 26/// /1310 10243 20196 30069 40171 58008 333 60007 90710 91124 555 60005 11624 58005=
91954 24567 /0809 10255 20224 30148 40151 58003 700// 333 4//// 60007 90710 91116 555 60005 10518 59008=
91958 26/// /0614 10234 20187 30200 40202 58004 333 60007 90710 91122 555 60005 10722 59010=
93004 46/// /0813 10180 20177 39995 40247 52011=
93023 46/// /1305 10180 20172 30157 40259 52013=
93069 46/// /1014 10198 20168 30179 40262 52012=
93110 47698 /3504 10195 20167 30254 40263 52013=
93186 47798 /3403 10203 20145 30261 40265 52014=
93196 46/// /1709 10170 20145 30218 40272 52011=
93201 46/// /2008 10197 20176 30234 40263 52009=
93245 47698 /0908 10176 20121 39788 40267 52018=
93292 47598 /1304 10186 20150 30275 40280 52008=
93309 47/98 /2305 10176 20161 30226 40262 52009=
93373 47598 /2902 10178 20151 30283 40285 52009=
93404 47/98 /1210 10166 20130 30214 40270 52010=
93420 47/98 /3501 10143 20132 30261 40268 52008=
93439 47/98 /0402 10162 20132 30259 40274 52008=
93498 46/// /0405 10155 20138 30145 40288 52007=
93515 47698 /1803 10182 20164 30264 40269 52004=
93527 46/// /2504 10161 20144 30265 40271 52006=
93546 47/98 /1502 10167 20137 30265 40271 52007=
93597 46/// /1705 10162 20145 30275 40281 52005=
93615 47698 /2101 10178 20165 30215 40271 52004=
93678 46498 /0511 10157 20148 30150 40279 52007=
93709 46/// /1502 10137 20133 30269 40270 52004=
93747 46/// /2703 10159 20139 39684 40255 52030=
93773 47998 /0504 10146 20125 30233 40266 52014=
93781 47498 /0617 10163 20133 30229 40274 52008=
93800 46/// /0703 10178 20161 30241 40262 52004=
93805 46/// /3610 10192 20149 30193 40245 52003=
93831 47999 /2405 10191 20138 39828 40247 52015=
93845 47996 /1504 10159 20150 30246 40247 52003=
93891 47998 /0701 10144 20129 30254 40257 52005=
93909 46/// /0105 10167 20139 30118 40241 54000=
93929 46/// /0117 10126 20126 30149 40197 57016=
93947 46/// /3307 10111 20099 40215 57014=
93994 46/// /1304 10211 20173 30143 40200 52019=
94102 46/// /2711 10307 20262 30063 40072=
94103 46/// /3415 10297 30060 40065 53002=
94105 46/// /2608 10321 20236 30025 40046=
94120 46/// /2613 10312 20237 30015 40054=
94122 46/// /2510 10307 20255 30056 40064=
94131 46/// /2908 10339 20230 39879 40029=
94147 46/// /2917 10300 20274 30020 40042=
94150 46/// /1809 10302 20242 39985 40045=
94170 46/// /3515 10258 20238 39955 49976=
94200 46/// /0509 10309 20245 30042 40051=
94203 46/// /0108 10318 20239 30044 40054=
94204 46/// /3108 10308 20252 39969 40056=
94206 46/// /2707 10373 20193 39917 40045=
94207 46/// /0439 10274 39974 49982 55004=
94210 46/// /3511 10296 30060 40066 53003=
94212 46/// /1201 10380 20139 39585 40035=
94216 46/// /3405 10371 20216 39979 40029=
94238 46/// /1211 10377 20056 39624 40039=
94248 46/// /0922 10307 20248 30027 40041=
94255 46/// /1108 10363 20131 39785 40042=
94268 46/// /1319 10240 20228 30018 40030=
94287 46/// /1514 10228 20205 30090 40099=
94289 46/// /1113 10282 30088 40095 53016 90915=
94290 46/// /1321 10260 30104 40113 53023 90924=
94294 46/// /1606 10231 20225 30114 40124=
94298 46/// /0811 10267 30119 40125 53024=
94299 46/// /0913 10274 20236 30092 40103=
94300 46/// /2019 10269 20212 30062 40072=
94302 46/// /2221 10341 20186 30029 40035=
94306 46/// /0723 10362 20196 30019 40032=
94307 46/// /1211 10280 20280 30006 40039=
94308 46/// /0810 10304 20248 30031 40043=
94312 46/// /0518 10332 20223 30034 40042=
94316 46/// /0214 10389 20094 39564 40027=
94317 46/// /0213 10373 20106 39469 40041=
94319 46/// /0411 10379 20157 39718 40040=
94326 46/// /1314 10351 20036 39476 40082=
94327 46/// /1310 10366 20001 39700 40068=
94332 46/// /0709 10337 20142 39678 40056=
94346 46/// /0210 10304 20191 39870 40086=
94363 46/// /0606 10299 20174 39891 40105=
94367 46/// /0606 10268 20228 30090 40125=
94374 46/// /0307 10270 20217 30104 40121=
94379 46/// /0912 10273 30123 40132 53024 90929=
94388 46/// /0505 10267 20238 30130 40135=
94393 46/// /0000 10274 30115 40129 53022=
94394 46/// ///15 10272 30129 40137 53022=
94403 46/// /2211 10251 20171 30058 40093=
94430 46/// /1414 10330 20126 39494 40063=
94449 46/// /2211 10286 20144 39593 40113=
94461 46/// /1106 10382 21006 39407 40063=
94462 46/// /1009 10377 20034 39529 40073=
94510 46/// /0000 10320 20055 39749 40090=
94515 46/// /1402 10299 20052 39752 40099=
94552 46/// /1021 10247 20167 39666 40126=
94578 46/// /1107 10260 20221 30133 40144=
94584 46/// /0814 10257 20224 30026 40136=
94600 46/// /1715 10253 20170 39975 40102=
94601 46/// /1523 10197 20177 30122 40138=
94602 46/// /2013 10235 20196 30038 40088=
94603 46/// /2507 10280 20178=
94604 46/// /1413 10293 20181 30085 40092=
94605 46/// /2308 10272 20182 30083 40087=
94608 46/// /2307 10277 20173 30059 40088=
94609 46/// /2411 10271 20187 30053 40089=
94610 46/// /2509 10290 20175 30063 40086=
94612 46/// /2708 10291 20200 30034 40087=
94614 46/// /2307 10252 20219=
94615 46/// /2408 10284 20173=
94620 46/// /1705 10300 20157 39782 40090=
94637 46/// /3107 10235 20177 39673 40086=
94638 46/// /1711 10205 20202 30102 40134=
94647 46/// /0910 10201 20167 30026 40135=
94651 46/// /1216 10197 20169 30067 40143=
94653 46/// /1715 10194 20153 30125 40143=
94659 46/// /2009 10304 20049 39918 40111=
94672 46/// /1512 10207 20136 30132 40142=
94691 46/// /0611 10339 20027 39776 40097=
94693 46/// /1406 10298 20099 30060 40120=
94703 46/// /0703 10317 20019 39975 40098=
94710 46/// /2303 10312 20024 39856 40105=
94729 46/// /0310 10198 20168 39316 40155=
94750 46/// /1905 10204 20196 30044 40167=
94767 46/// /1508 10231 20191 30158 40164=
94776 46/// /1905 10221 20195 30148 40157=
94802 46/// /1408 10213 20190 30051 40133=
94804 46/// /1723 10182 2//// 30120 40158=
94821 46/// /1511 10161 20151 30092 40174=
94842 46/// /1211 10180 20177 30072 40170=
94850 46/// /1208 10177 20175 30141 40184=
94865 46/// /2306 10213 20179 30126 40150=
94866 46/// /1907 10207 20175 30012 40151=
94893 46/// /0625 10182 20153 30054 40169=
94907 46/// ///// 10197 20173=
94910 46/// /0811 10270 20115 39880 40126=
94926 46/// /1106 10213 20158 39505 40164=
94934 46/// /1408 10210 20197 30151 40175=
94935 46/// /0603 10195 20178 30152 40179=
94951 46/// /1612 10157 20137 30202 40217=
94954 46/// ///// 10177 20160 30082 40192=
94956 46/// /1908 10169 20144 30170 40196=
94974 46/// /1818 10158 20136 30172 40195=
94975 46/// /1813 10149 20140 30188 40221=
94983 46/// /1717 10181 20152 30176 40201=
94995 46/// /3501 10231 20201 30143 40151=
94996 46/// /0813 10223 20185 30058 40194=
94998 46/// /3014 10072 20069 30140 40151=
95205 46/// /3313 10311 20254 30055 40063=
95288 46/// /1016 30069 40084 53017=
95307 46/// /0915 10311 20240 30032 40038=
95448 46/// /1715 10278 20130 39546 40100=
95458 46/// /1913 10331 21001 39853 40110=
95481 46/// /1504 10362 20011 30039 40083=
95527 46/// /1907 10294 20085 39858 40106=
95610 46/// /2607 10278 20167=
95611 46/// /1518 10257 20165 30087 40107=
95636 46/// /1008 10201 20173 39766 40118=
95638 46/// /1713 10201 20194 39972 40138=
95646 46/// /1016 10298 20099 39929 40113=
95666 46/// /1410 10260 20160 30101 40118=
95719 46/// /1104 10282 20104 39797 40123=
95762 46/// /1712 10262 20119 39677 40126=
95909 46/// /0104 10104 20101 38086 40182=
95936 46/// /2203 10214 20193 30140 40149=
95954 46/// /1804 10178 20172 30086 40190=
95961 46/// /1520 10150 20139 30166 40208 53007=
96001 32558 70000 10282 20238 39966 40112 56016 84272 333 56200 57822 84820 80860=
96009 32456 82803 10300 20244 30059 40094 57028 8482/ 333 56009 57802 81816 83617 85460 80861=
96011 31450 81304 10262 20235 30076 40100 57018 71799 86921 333 56000 57903 82915 84818 80960=
96015 21450 80503 10276 20260 30092 40099 57012 79696 85972 333 56000 57901 69907 83913 82615 80980=
96033 21457 82805 10280 20245 30087 40092 57030 70562 84927 333 56000 57903 69957 81920 84617 88457 80980=
96035 21456 82704 10278 20257 30077 40087 57032 70296 83576 333 56000 60017 83617 84360=
96073 47660 23209 10292 20259 30072 40085 57024 700// 333 1//// 2//// 58001=
96075 21458 70000 10292 20263 30079 40089 57029 72162 82971 333 56000 57901 57801 69907 81915 81816 80964 80850=
96087 32460 70612 10300 20221 30049 40094 56022 83138 333 56100 83814 85460=
96091 32460 30512 10314 20217 30063 40086 57017 81101 333 56000 81817=
96109 32458 73409 10324 20236 30022 40059 57037 84222 333 56000 57802 84815 80857=
96145 32456 21504 10300 20224 30073 40076 58023 82101 333 56100 82817=
96147 32458 30308 10296 20244 30095 40097 56010 83531 333 56000 83616=
96163 32460 80000 10291 20264 30082 40090 57019 85528 333 56000 85619=
96171 21457 80000 10296 20253 30046 40070 57023 70262 8552/ 333 56009 60067 85613=
96179 21459 70308 10294 20249 30038 40073 55018 70262 83218 333 56000 57802 60017 83817 83460 87280 80850=
96195 31456 70506 10286 20258 30046 40076 57026 70522 84523 333 56000 84614 84460=
96207 32450 82315 10271 20197 39208 40111 57022 71522 85231 333 56000 57901 57801 81913 84814 80980 80870=
96221 32460 50708 10298 20251 30066 40080 55015 82131 333 56999 82810 83360=
96237 32460 83606 10305 20248 30029 40074 57015 84978 333 56000 57901 81914 83816 84360 80980=
96249 32559 73608 10302 20238 30018 40081 57018 84232 333 56800 57881 84820 80863=
96253 32460 72710 10298 20252 30056 40074 56021 83972 333 56000 57900 57800 81915 82820=
96295 32460 72007 10312 20238 39997 40082 56023 83221 333 56000 57800 83813 86460 80800=
96315 41460 72910 10298 20252 40075 70522 84968 333 82816 81917 85080=
96413 41562 70505 10301 20245 30045 40071 56023 70522 83241 333 83820 85080=
96421 42480 72803 10339 20235 30027 40063 70222 84241 333 84818 85080=
96441 41480 73309 10306 20255 30043 40070 56018 70222 81141 333 81816 85080=
96449 41480 73007 10303 20256 30053 40072 56013 70222 83931 333 81915 83365 85080=
96465 41480 73105 10282 20250 30045 40078 55008 70222 81948 333 81814 81915 87279=
96471 41470 70604 10285 20256 30075 40078 57004 72196 83848 333 82814 84364 87277=
96481 41462 60303 10279 20237 30059 40078 57003 70122 82841 333 82817 86080=
96491 41465 70907 10279 20244 30075 40087 70522 84742 333 81710 83816 87079=
96505 32458 52707 10288 20199 39040 40131 55011 84231 333 56000 57801 84815 80863=
96509 21460 30806 10300 20245 30071 40079 53009 70162 81131 333 56000 60047 81815=
96525 21460 50512 10303 20244 30071 40074 55007 70261 82171 333 56000 60017 83815=
96529 32458 70704 10290 20251 30069 40085 53002 85121 333 56000 85812=
96535 32460 53503 10302 20238 30068 40085 57021 82101 333 56000 82814 84082=
96557 32460 62603 10340 20223 30024 40072 57023 84221 333 56600 57861 84810 84460 80857=
96559 32458 42704 10334 20211 30033 40065 57025 82231 333 56000 57803 82815 80860=
96565 32460 42205 10337 20231 30029 40080 57022 82111 333 56000 82815=
96581 32460 72610 10326 20244 30062 40069 57023 84131 333 56600 84811 84362 80860=
96595 32460 60000 10303 20258 30030 40073 57018 85532 333 56000 85612=
96607 32460 53104 10316 20232 30068 40080 57018 83221 333 56000 83817=
96615 32460 62704 10313 20243 30070 40080 57016 80001 333 56000 86082=
96633 32560 41503 10316 20261 30058 40065 55015 82211 333 56000 82820=
96645 32460 50000 10332 20225 30038 40071 57018 83511 333 56000 83612=
96655 32460 60703 10326 20246 30047 40078 57021 85511 333 56000 85612 83460=
96685 32560 62308 10322 20222 30044 40065 57015 81111 333 56000 81820 84462=
96695 21458 60000 10270 20262 30078 40080 53005 76022 84921 333 56000 57901 60167 81914 84714 80965=
96737 32458 82702 10302 20242 30037 40067 55016 85221 333 56000 57801 85817 85460 80860=
96739 21456 82204 10263 20246 30031 40083 57014 71796 8532/ 333 56009 57901 60037 81918 84618 88460 80980=
96741 32459 73505 10298 20253 30071 40075 57020 85571 333 56600 85619=
96745 32557 73109 10298 20247 30071 40076 55017 84221 333 56600 57861 84820 86460 80856=
96749 32460 73311 10290 20241 30068 40081 55016 83521 333 56000 83619 85460=
96751 21558 80000 10222 20205 39018 40070 57008 71796 8892/ 333 56609 57962 60027 82920 85620 80970=
96781 21425 73515 10226 20204 39270 40125 57011 79596 85971 333 56000 57901 60057 81917 84618 80982=
96791 21456 82806 10285 20241 30030 40080 55002 71762 8492/ 333 56009 57900 69907 81917 84618 88460 809//=
96797 32560 73403 10307 20248 30069 40073 55015 82271 333 56000 57803 82820 84460=
96805 32559 62305 10310 20255 30062 40069 57019 84221 333 56000 57802 84820 80860=
96837 31558 72710 10297 20254 30068 40069 57014 70522 84971 333 56000 57900 81920 83820=
96839 32458 73110 10296 20258 30066 40070 57015 84931 333 56000 57901 57802 81913 83814 84361 80980 80860=
96925 32460 43007 10315 20256 30066 40071 55012 83232 333 56600 57862 83818 80860=
96933 32560 70000 10310 20255 30064 40067 57014 82221 333 56000 57802 82820 85460 80860=
96935 32560 73012 10297 20244 30063 40067 57013 82271 333 56600 57861 82820 84460 80860=
96937 32560 73408 10312 20255 30062 40066 57014 82221 333 56000 57802 82820 85460 80860=
96973 32562 53010 10316 20257 30064 40067 56011 83231 333 56000 57803 83820 80850=
96987 31458 72204 10287 20245 30012 40060 56001 72992 85921 333 56000 57901 81918 84618 80980=
96995 46/// /1404 10267 20234 39787 40080=
96996 17/// /1511 10292 20227 30086 40091 56019 60001 700//=
97008 32459 40000 10276 20229 30083 40096 53002 82131 333 56000 82819=
97014 32560 70706 10271 20238 39999 40092 53003 84871 333 56000 57803 83821 80857=
97016 32462 70904 10290 20232 30083 40088 53007 84271 333 56000 57801 84819 84359 80859=
97028 31562 70603 10281 20225 30075 40078 53004 70292 83521 333 56000 83620 86460=
97048 32460 63303 10294 20242 30045 40067 52007 84971 333 56000 57901 81917 83618 80980=
97072 32458 33412 10310 20235 39985 40085 57003 82271 333 56000 57806 81819 80840=
97086 32560 40102 10320 20245 30054 40075 55002 82421 333 56000 82620 83460=
97096 32459 60103 10304 20256 30064 40072 57006 83221 333 56000 57802 83817 83460 80860=
97120 32462 62006 10308 20239 30035 40070 55013 81231 333 56000 57803 81818 85080 80860=
97126 32459 72505 10280 20242 30039 40072 53006 82520 333 56000 82616 87460=
97146 21457 71804 10290 20259 30035 40095 53001 79596 84921 333 56000 58790 57801 69907 81915 83816 84460 80980 80860=
97180 32460 42703 10314 20252 30057 40074 57013 81111 333 56000 81819=
97182 32564 62804 10310 20252 30069 40071 57013 82871 333 56000 57800 82820 84080 808//=
97192 31460 61605 10314 20253 30035 40099 55002 72992 83921 333 56000 57901 57801 81918 82819 83460 80960 80857=
97230 32460 82515 10302 20256 30053 40058 57017 83235 333 56600 57861 83817 85080 80859=
97240 21450 63012 10292 20241 39957 40072 57007 76062 85971 333 56000 57901 57801 69907 81915 84816 80980 80860=
97260 32559 63112 10295 20258 30054 40058 55012 84211 333 56000 84620=
97270 32458 70105 10300 20240 30062 40066 57010 85811 333 56000 83815 84460=
97284 32456 71505 10218 20196 38861 40090 56006 85221 333 56000 57801 85810 80837=
97300 32460 33410 10296 20253 30046 40082 57014 82231 333 56000 57803 82818 80857=
97310 32563 20000 10304 20244 30063 40075 55006 82101 333 56000 82820=
97320 32464 42103 10302 20244 30071 40084 50001 81231 333 56000 57803 81819 84080 80850=
97340 32560 52806 10318 20251 30056 40068 55008 82323 333 56000 82820=
97372 32460 53308 10308 20257 39961 40082 55001 81131 333 56000 81819 85080=
97378 32560 43608 10284 20252 39908 40117 56005 83101 333 56700 83820=
97380 32464 20107 10306 20255 30047 40069 57005 81101 333 56700 81815=
97406 21459 70000 10272 20257 30045 40086 53008 72162 84971 333 56000 57901 57801 69957 81917 83818 80980 80860=
97430 32458 73411 10282 20247 30058 40098 53009 85272 333 56700 57871 85818 80860=
97460 32460 42404 10304 20237 30058 40080 52014 82832 333 56000 57804 81818 80858=
97502 32458 40505 10288 20251 30078 40078 52015 83231 333 56000 57802 83812 80856=
97530 21450 83205 10275 20256 30074 40078 53015 70266 84872 333 56000 57801 69907 83814 83460 80836=
97560 32460 83406 10295 20255 30060 40073 83217 333 56000 57803 83818 83461 88280 80860=
97580 32458 80000 10258 20240 30078 40084 52015 84924 333 56000 57902 81914 83618 85462 80970 80860=
97600 32460 51803 10310 20250 30074 40076 55000 83231 333 56000 57802 83819 80859=
97630 32460 52002 10305 20238 39932 40092 52010 82242 333 56000 57801 82812 80856=
97682 32458 60305 10302 20244 30060 40067 53016 82231 333 56000 57803 82816 85080 80856=
97690 11458 72606 10264 20227 39971 40067 52019 70262 84238 333 56000 57802 69937 83813 83365 87279 80857=
97698 21457 80000 10278 20257 30069 40072 53012 71562 8397/ 333 56009 57900 69907 81913 82814 88460=
97700 32462 33605 10293 20257 30051 40066 52003 82231 333 56000 57804 82817 80850=
97722 32462 30000 10305 20235 30067 40077 53010 82202 333 56000 57804 82819 80850=
97724 32460 33406 10308 20228 30053 40072 52006 82202 333 56000 57803 82818 80856=
97748 31457 50000 10308 20256 30076 40078 52008 70521 82231 333 56800 57883 82815 80840=
97760 32457 60000 10300 20244 30065 40074 52012 83832 333 56000 57802 81815 82617 80870=
97780 32458 52003 10222 20146 38229 40076 53009 83931 333 56000 57901 57802 81910 82810 83360 80970 80860=
97790 32563 22704 10302 20252 30057 40078 53007 81101 333 56000 57809 81822 80840=
97796 32456 52504 10308 20213 30033 40080 52013 83932 333 56000 57902 82914 83615 85080 80980=
97810 32458 72904 10292 20258 30043 40076 53008 83232 333 56600 57861 83819 85077 80840=
97876 32360 70000 10265 20245 30044 40076 53014 86942 333 56000 57901 82909 84610 80960=
97900 32565 42707 10305 20254 30040 40069 50005 83235 333 56600 57861 83820 80850=
97980 32456 80000 10260 20236 30055 40058 51014 86847 333 56000 83816 83618 87275=